サン=ドニ の空港の天気 - METARとTAF

ローラン・ギャロス空港 ( FMEE / RUN ) - レユニオン サン=ドニ
飛行場実況気象(Metar)
観測時間09/26 01:30 RET (09/25 21:30 UTC)
風向・風速南東 7m/s
視程10km以上
天気現象
少しの雲 雲底高度 1040m
気温21℃
湿度78%
気圧1022hPa
METARFMEE 252130Z AUTO 13014KT 9999 FEW034/// 21/17 Q1022 NOSIG
過去の天気等 Google飛行場航空写真 Wunderground天気予報

過去48時間のMETAR

飛行場予報(TAF)
発表時間: -
26日8時 RET ~ 26日10時 RET に徐々に
風向・風速東 9m/s 瞬間風速 14m/s
26日16時 RET ~ 26日18時 RET に徐々に
風向・風速南東 6m/s
TAF
FMEE 251700Z 2518/2624 14015KT 9999 FEW030
BECMG 2604/2606 10018G28KT
BECMG 2612/2614 14012KT